Mc Kinnon, Wyoming
Current Conditions -  °F | °C
As of 11:35 PM on Thursday 30 Oct 2014 (Local Time) from KFBR Reporting Station
Clear Clear  
Wind Chill: 38°   Ceiling: Unl
Heat Index: 41°   Visibility: NA
Dew Point: 27°   Wind: 5mph
Humidity: 56%   Direction: 340°NNW
Pressure: 30.28"   Gusts: NA
Location:  41.275°N, 109.786°W
Report Text: KFBR 310535Z AUTO 34004KT CLR 05/M03 A3028 RMK AO2 T00521030 PWINO
Loading
Personal Weather Stations






























Interactive Weather Map
Tropical Storm Tracking
New forecast layout! Learn more

10-Day Weather Forecast

Advertisements
Track Severe Weather on mobile